ěÝzenÝ letovÚho provozu ╚eskÚ republiky
Letiste: LKNA Aktualizace: 01.03.2021 19:27:24  UTC
 METAR LKNA 01.03. 19:30 ...
METAR LKNA 011930Z 10003KT CAVOK 01/M01 Q1033 NOSIG RMK BLU BLU=
 TAF LKNA 01.03. 17:00 ...
TAF LKNA 011700Z 0118/0218 10004KT CAVOK      BECMG 0119/0121 VRB02KT 5000 BR NSC      BECMG 0200/0202 3000 BR BKN006      TEMPO 0202/0208 14002KT 0800 FZFG VV002      TEMPO 0212/0216 6000 NSC=